アトランタ の空港の天気 - METARとTAF

ハーツフィールド・ジャクソン・アトランタ国際空港 ( KATL / ATL ) - アメリカ ジョージア州アトランタ
飛行場実況気象(Metar)
観測時間04/21 10:52 EDT (04/21 14:52 UTC)
風向・風速西北西 4m/s
視程10km以上
天気現象
なし
気温15℃
湿度47%
気圧1020hPa
METARKATL 211452Z 30008KT 10SM CLR 15/04 A3012 RMK AO2 SLP200 T01500039 51018
過去の天気等 Google飛行場航空写真 Wunderground天気予報

過去48時間のMETAR

飛行場予報(TAF)
発表時間: 4/21 09:59 EDT (4/21 13:59 UTC)
予報対象時間: 21日10時 EDT ~ 22日14時 EDT
風向・風速西北西 5m/s
視程10km以上
なし
21日13時 EDT から
風向・風速北西 5m/s 瞬間風速 8m/s
視程10km以上
なし
21日20時 EDT から
風向・風速西北西 3m/s
視程10km以上
なし
22日6時 EDT から
風向・風速北西 2m/s
視程10km以上
なし
KATL 211359Z 2114/2218 30010KT P6SM SKC
FM211700 32010G16KT P6SM SKC
FM220000 30005KT P6SM SKC
FM221000 32004KT P6SM SKC